createdAt,value
2022-12-08T00:05:27.080Z,4.2
2022-12-08T00:19:57.930Z,4.3
2022-12-08T00:34:30.532Z,4.3
2022-12-08T00:49:02.133Z,4.3
2022-12-08T01:03:32.653Z,4.1
2022-12-08T01:18:07.238Z,4.2
2022-12-08T01:32:39.803Z,4
2022-12-08T01:47:12.709Z,4.2
2022-12-08T02:01:45.085Z,4.2
2022-12-08T02:16:17.568Z,4.1
2022-12-08T02:30:50.321Z,4
2022-12-08T02:45:22.520Z,4.1
2022-12-08T02:59:55.189Z,3.8
2022-12-08T03:14:27.390Z,3.8
2022-12-08T03:29:00.505Z,3.8
2022-12-08T03:43:33.436Z,3.8
2022-12-08T03:58:05.792Z,3.7
2022-12-08T04:12:37.791Z,3.7
2022-12-08T04:27:08.736Z,3.8
2022-12-08T04:41:40.905Z,3.8
2022-12-08T04:56:13.942Z,3.7
2022-12-08T05:10:46.387Z,3.8
2022-12-08T05:25:18.965Z,4.1
2022-12-08T05:39:51.507Z,3.7
2022-12-08T05:54:25.733Z,3.7
2022-12-08T06:08:58.054Z,3.8
2022-12-08T06:23:29.795Z,3.7
2022-12-08T06:38:02.016Z,3.7
2022-12-08T06:52:35.696Z,3.7
2022-12-08T07:07:21.719Z,3.6
2022-12-08T07:21:54.126Z,3.7
2022-12-08T07:36:25.776Z,3.7
2022-12-08T07:50:59.999Z,3.6
2022-12-08T08:05:33.702Z,3.5
2022-12-08T08:20:05.411Z,3.4
2022-12-08T08:34:37.449Z,3.4
2022-12-08T08:49:10.834Z,3.5
2022-12-08T09:03:47.199Z,3.5
2022-12-08T09:18:18.944Z,3.5
2022-12-08T09:32:51.021Z,3.3
2022-12-08T09:47:23.528Z,3.2
2022-12-08T10:01:56.216Z,3.2
2022-12-08T10:16:30.316Z,3.4
2022-12-08T10:31:03.786Z,3.5
2022-12-08T10:45:35.630Z,3.4
2022-12-08T11:00:13.724Z,3.6
2022-12-08T11:14:44.155Z,3.7
2022-12-08T11:29:16.758Z,3.7
2022-12-08T11:43:51.430Z,3.6
2022-12-08T11:58:22.996Z,3.8
2022-12-08T12:12:56.058Z,3.7
2022-12-08T12:27:29.399Z,3.9
2022-12-08T12:42:01.777Z,3.8
2022-12-08T12:56:34.717Z,3.8
2022-12-08T13:11:09.952Z,3.8
2022-12-08T13:25:43.614Z,3.7
2022-12-08T13:40:18.628Z,3.8
2022-12-08T13:55:35.743Z,3.8
2022-12-08T14:11:08.017Z,3.9
2022-12-08T14:25:40.103Z,3.7
2022-12-08T14:40:15.620Z,3.8
2022-12-08T14:54:48.793Z,3.5
2022-12-08T15:09:21.230Z,3.4
2022-12-08T15:23:53.257Z,3.4
2022-12-08T15:38:25.730Z,3.4
2022-12-08T15:52:58.802Z,3.5
2022-12-08T16:07:31.977Z,3.4
2022-12-08T16:22:44.725Z,3.1
2022-12-08T16:37:44.229Z,3.3
2022-12-08T16:52:16.637Z,3.1
2022-12-08T17:06:48.120Z,3
2022-12-08T17:21:22.040Z,3.2
2022-12-08T17:35:55.264Z,3.2
2022-12-08T17:50:23.511Z,3.2
2022-12-08T18:04:56.111Z,3.1
2022-12-08T18:19:31.833Z,2.9
2022-12-08T18:34:02.720Z,2.9
2022-12-08T18:48:34.914Z,3
2022-12-08T19:03:06.978Z,3
2022-12-08T19:17:40.299Z,2.9
2022-12-08T19:32:13.028Z,3
2022-12-08T19:46:45.229Z,3
2022-12-08T20:01:20.281Z,3
2022-12-08T20:15:51.992Z,2.8
2022-12-08T20:30:23.711Z,2.8
2022-12-08T20:44:55.957Z,2.7
2022-12-08T20:59:28.373Z,2.8
2022-12-08T21:14:03.568Z,2.8
2022-12-08T21:28:34.545Z,2.8
2022-12-08T21:43:07.587Z,2.8
2022-12-08T21:57:40.261Z,2.6
2022-12-08T22:12:15.279Z,2.8
2022-12-08T22:26:51.409Z,2.8
2022-12-08T22:41:21.584Z,2.7
2022-12-08T22:55:54.118Z,2.7
2022-12-08T23:10:26.876Z,2.9
2022-12-08T23:24:58.626Z,2.8
2022-12-08T23:39:31.583Z,2.9
2022-12-08T23:54:04.389Z,2.9
